createdAt,value
2019-01-28T00:00:34.279Z,92.94
2019-01-28T00:01:34.246Z,93.78
2019-01-28T00:02:34.238Z,93.37
2019-01-28T00:03:34.268Z,93.57
2019-01-28T00:04:34.237Z,93.99
2019-01-28T00:05:34.231Z,93.26
2019-01-28T00:06:34.229Z,93.37
2019-01-28T00:07:34.194Z,93.57
2019-01-28T00:08:34.165Z,93.26
2019-01-28T00:09:34.160Z,93.37
2019-01-28T00:10:34.155Z,93.78
2019-01-28T00:11:34.130Z,93.57
2019-01-28T00:12:34.128Z,93.57
2019-01-28T00:13:34.111Z,93.47
2019-01-28T00:14:34.095Z,93.62
2019-01-28T00:15:34.129Z,93.16
2019-01-28T00:16:34.071Z,93.41
2019-01-28T00:17:34.082Z,93.16
2019-01-28T00:18:34.054Z,93.57
2019-01-28T00:19:34.039Z,93.47
2019-01-28T00:20:34.032Z,94.09
2019-01-28T00:21:34.059Z,94.30
2019-01-28T00:22:34.003Z,93.93
2019-01-28T00:23:34.032Z,94.13
2019-01-28T00:24:33.991Z,93.88
2019-01-28T00:25:33.997Z,94.09
2019-01-28T00:26:33.960Z,93.72
2019-01-28T00:27:33.964Z,94.09
2019-01-28T00:28:33.950Z,94.13
2019-01-28T00:29:33.956Z,94.13
2019-01-28T00:30:33.921Z,94.13
2019-01-28T00:31:33.917Z,94.34
2019-01-28T00:32:33.897Z,94.03
2019-01-28T00:33:33.916Z,93.99
2019-01-28T00:34:33.917Z,93.82
2019-01-28T00:35:33.876Z,94.20
2019-01-28T00:36:33.852Z,93.68
2019-01-28T00:37:33.840Z,94.45
2019-01-28T00:38:33.846Z,94.86
2019-01-28T00:39:33.834Z,94.13
2019-01-28T00:40:33.825Z,94.13
2019-01-28T00:41:33.795Z,94.09
2019-01-28T00:42:33.801Z,95.07
2019-01-28T00:43:33.796Z,94.65
2019-01-28T00:44:33.764Z,95.07
2019-01-28T00:45:33.795Z,94.96
2019-01-28T00:46:33.757Z,94.96
2019-01-28T00:47:33.750Z,95.38
2019-01-28T00:48:33.748Z,94.76
2019-01-28T00:49:41.263Z,95.07
2019-01-28T00:50:33.700Z,94.13
2019-01-28T00:51:33.698Z,94.24
2019-01-28T00:52:33.739Z,94.45
2019-01-28T00:53:33.689Z,93.72
2019-01-28T00:54:33.656Z,93.78
2019-01-28T00:55:33.638Z,93.82
2019-01-28T00:56:33.628Z,94.24
2019-01-28T00:57:33.621Z,94.03
2019-01-28T00:58:33.637Z,93.99
2019-01-28T00:59:33.599Z,94.24
2019-01-28T01:00:33.608Z,94.13
2019-01-28T01:01:33.570Z,94.20
2019-01-28T01:02:33.560Z,93.62
2019-01-28T01:03:33.553Z,92.84
2019-01-28T01:04:33.576Z,93.57
2019-01-28T01:05:33.529Z,93.37
2019-01-28T01:06:33.550Z,93.51
2019-01-28T01:07:33.505Z,92.94
2019-01-28T01:08:33.492Z,93.57
2019-01-28T01:09:33.532Z,93.57
2019-01-28T01:10:33.492Z,93.57
2019-01-28T01:11:33.465Z,93.26
2019-01-28T01:12:33.451Z,93.47
2019-01-28T01:13:33.442Z,93.37
2019-01-28T01:14:33.425Z,93.20
2019-01-28T01:15:33.432Z,92.74
2019-01-28T01:16:33.405Z,92.94
2019-01-28T01:17:33.404Z,93.20
2019-01-28T01:18:33.424Z,93.37
2019-01-28T01:19:33.398Z,93.26
2019-01-28T01:20:33.382Z,93.05
2019-01-28T01:21:33.366Z,92.88
2019-01-28T01:22:33.348Z,92.11
2019-01-28T01:23:33.337Z,92.43
2019-01-28T01:24:33.317Z,93.16
2019-01-28T01:25:33.340Z,92.99
2019-01-28T01:26:33.314Z,92.94
2019-01-28T01:27:33.298Z,93.57
2019-01-28T01:28:33.272Z,93.47
2019-01-28T01:29:33.305Z,93.16
2019-01-28T01:30:33.252Z,93.26
2019-01-28T01:31:33.241Z,94.03
2019-01-28T01:32:33.271Z,93.93
2019-01-28T01:33:33.237Z,93.99
2019-01-28T01:34:33.209Z,94.24
2019-01-28T01:35:33.206Z,94.13
2019-01-28T01:36:33.205Z,94.13
2019-01-28T01:37:33.173Z,94.13
2019-01-28T01:38:33.195Z,94.13
2019-01-28T01:39:33.182Z,94.65
2019-01-28T01:40:33.170Z,95.17
2019-01-28T01:41:33.137Z,94.13
2019-01-28T01:42:33.150Z,94.24
2019-01-28T01:43:33.126Z,95.07
2019-01-28T01:44:33.119Z,94.13
2019-01-28T01:45:33.083Z,94.24
2019-01-28T01:46:33.113Z,94.45
2019-01-28T01:47:33.081Z,94.24
2019-01-28T01:48:33.051Z,94.03
2019-01-28T01:49:33.043Z,93.62
2019-01-28T01:50:33.044Z,93.57
2019-01-28T01:51:33.020Z,94.03
2019-01-28T01:52:33.034Z,93.62
2019-01-28T01:53:33.000Z,93.41
2019-01-28T01:54:32.985Z,93.30
2019-01-28T01:55:32.974Z,93.62
2019-01-28T01:56:32.962Z,93.41
2019-01-28T01:57:32.969Z,93.20
2019-01-28T01:58:32.955Z,93.20
2019-01-28T01:59:32.955Z,93.62
2019-01-28T02:00:32.917Z,93.20
2019-01-28T02:01:32.925Z,92.99
2019-01-28T02:02:33.532Z,93.93
2019-01-28T02:03:32.886Z,94.13
2019-01-28T02:04:32.887Z,94.03
2019-01-28T02:05:32.878Z,93.41
2019-01-28T02:06:32.852Z,93.41
2019-01-28T02:07:32.839Z,93.45
2019-01-28T02:08:32.833Z,94.13
2019-01-28T02:09:32.851Z,94.24
2019-01-28T02:10:32.834Z,94.49
2019-01-28T02:11:32.800Z,94.28
2019-01-28T02:12:32.808Z,94.45
2019-01-28T02:13:32.795Z,94.28
2019-01-28T02:14:32.761Z,95.11
2019-01-28T02:15:32.773Z,94.80
2019-01-28T02:16:32.736Z,95.21
2019-01-28T02:17:32.725Z,95.32
2019-01-28T02:18:32.718Z,94.90
2019-01-28T02:19:32.709Z,95.11
2019-01-28T02:20:32.747Z,95.32
2019-01-28T02:21:32.719Z,94.90
2019-01-28T02:22:32.681Z,95.42
2019-01-28T02:23:32.658Z,95.53
2019-01-28T02:24:32.648Z,95.84
2019-01-28T02:25:32.637Z,95.21
2019-01-28T02:26:32.642Z,95.36
2019-01-28T02:27:32.615Z,95.32
2019-01-28T02:28:32.603Z,95.47
2019-01-28T02:29:32.638Z,95.78
2019-01-28T02:30:32.602Z,95.99
2019-01-28T02:31:32.570Z,95.99
2019-01-28T02:32:32.559Z,96.47
2019-01-28T02:33:32.567Z,95.94
2019-01-28T02:34:32.564Z,96.57
2019-01-28T02:35:32.525Z,96.51
2019-01-28T02:36:32.549Z,96.92
2019-01-28T02:37:32.524Z,96.09
2019-01-28T02:38:32.519Z,96.82
2019-01-28T02:39:32.485Z,96.20
2019-01-28T02:40:32.475Z,96.51
2019-01-28T02:41:32.461Z,96.41
2019-01-28T02:42:32.464Z,96.61
2019-01-28T02:43:32.448Z,97.03
2019-01-28T02:44:32.447Z,97.03
2019-01-28T02:45:32.453Z,96.78
2019-01-28T02:46:32.409Z,97.44
2019-01-28T02:47:32.436Z,96.92
2019-01-28T02:48:32.408Z,96.61
2019-01-28T02:49:32.383Z,97.03
2019-01-28T02:50:32.363Z,96.20
2019-01-28T02:51:32.348Z,96.30
2019-01-28T02:52:32.360Z,95.99
2019-01-28T02:53:32.329Z,96.30
2019-01-28T02:54:32.358Z,96.92
2019-01-28T02:55:32.326Z,96.82
2019-01-28T02:56:32.315Z,96.51
2019-01-28T02:57:32.281Z,97.13
2019-01-28T02:58:32.276Z,97.24
2019-01-28T02:59:32.266Z,96.20
2019-01-28T03:00:32.270Z,97.24
2019-01-28T03:01:32.240Z,96.09
2019-01-28T03:02:32.241Z,96.82
2019-01-28T03:03:32.254Z,96.82
2019-01-28T03:04:32.203Z,96.97
2019-01-28T03:05:32.240Z,96.92
2019-01-28T03:06:32.202Z,97.24
2019-01-28T03:07:32.170Z,96.92
2019-01-28T03:08:32.161Z,97.07
2019-01-28T03:09:32.156Z,97.34
2019-01-28T03:10:32.161Z,96.82
2019-01-28T03:11:32.131Z,96.41
2019-01-28T03:12:40.810Z,96.92
2019-01-28T03:13:32.121Z,96.92
2019-01-28T03:14:32.096Z,96.92
2019-01-28T03:15:32.114Z,97.07
2019-01-28T03:16:32.074Z,97.28
2019-01-28T03:17:32.066Z,96.97
2019-01-28T03:18:32.063Z,96.97
2019-01-28T03:19:32.048Z,97.17
2019-01-28T03:20:32.030Z,96.97
2019-01-28T03:21:32.111Z,97.07
2019-01-28T03:22:32.005Z,96.14
2019-01-28T03:23:32.012Z,96.86
2019-01-28T03:24:32.009Z,97.12
2019-01-28T03:25:31.973Z,97.49
2019-01-28T03:26:31.966Z,97.17
2019-01-28T03:27:31.955Z,96.66
2019-01-28T03:28:31.946Z,96.97
2019-01-28T03:29:31.943Z,96.86
2019-01-28T03:30:31.963Z,96.76
2019-01-28T03:31:31.906Z,96.76
2019-01-28T03:32:31.901Z,96.45
2019-01-28T03:33:31.885Z,96.45
2019-01-28T03:34:31.889Z,97.28
2019-01-28T03:35:31.876Z,96.86
2019-01-28T03:36:31.856Z,96.66
2019-01-28T03:37:31.839Z,96.97
2019-01-28T03:38:31.873Z,96.55
2019-01-28T03:39:31.817Z,96.66
2019-01-28T03:40:31.821Z,96.97
2019-01-28T03:41:31.798Z,96.97
2019-01-28T03:42:31.785Z,96.76
2019-01-28T03:43:31.773Z,97.07
2019-01-28T03:44:31.779Z,96.76
2019-01-28T03:45:31.793Z,96.86
2019-01-28T03:46:31.756Z,96.97
2019-01-28T03:47:31.743Z,97.07
2019-01-28T03:48:31.726Z,97.07
2019-01-28T03:49:31.719Z,96.76
2019-01-28T03:50:31.698Z,97.28
2019-01-28T03:51:31.687Z,96.66
2019-01-28T03:52:31.694Z,96.45
2019-01-28T03:53:31.662Z,96.03
2019-01-28T03:54:31.651Z,96.55
2019-01-28T03:55:31.639Z,96.45
2019-01-28T03:56:31.627Z,96.66
2019-01-28T03:57:31.614Z,96.76
2019-01-28T03:58:31.656Z,97.07
2019-01-28T03:59:31.592Z,96.76
2019-01-28T04:00:31.583Z,96.97
2019-01-28T04:01:31.574Z,96.24
2019-01-28T04:02:31.559Z,96.45
2019-01-28T04:03:31.584Z,96.03
2019-01-28T04:04:31.557Z,96.66
2019-01-28T04:05:31.525Z,96.86
2019-01-28T04:06:31.515Z,96.76
2019-01-28T04:07:31.503Z,96.76
2019-01-28T04:08:31.493Z,96.91
2019-01-28T04:09:31.497Z,97.33
2019-01-28T04:10:31.497Z,97.12
2019-01-28T04:11:31.461Z,97.22
2019-01-28T04:12:31.453Z,96.86
2019-01-28T04:13:31.447Z,97.85
2019-01-28T04:14:31.426Z,97.64
2019-01-28T04:15:32.593Z,97.85
2019-01-28T04:16:31.404Z,97.74
2019-01-28T04:17:31.401Z,98.05
2019-01-28T04:18:31.387Z,97.74
2019-01-28T04:19:31.374Z,98.11
2019-01-28T04:20:31.390Z,98.47
2019-01-28T04:21:31.347Z,98.05
2019-01-28T04:22:31.335Z,98.16
2019-01-28T04:23:31.324Z,98.05
2019-01-28T04:24:31.321Z,98.16
2019-01-28T04:25:31.302Z,98.26
2019-01-28T04:26:31.308Z,97.85
2019-01-28T04:27:31.281Z,97.95
2019-01-28T04:28:31.271Z,98.26
2019-01-28T04:29:31.258Z,97.99
2019-01-28T04:30:31.302Z,98.47
2019-01-28T04:31:31.239Z,98.26
2019-01-28T04:32:31.259Z,98.99
2019-01-28T04:33:31.213Z,99.14
2019-01-28T04:34:31.225Z,98.99
2019-01-28T04:35:31.210Z,98.88
2019-01-28T04:36:31.189Z,98.78
2019-01-28T04:37:31.181Z,98.26
2019-01-28T04:38:31.173Z,98.99
2019-01-28T04:39:31.145Z,98.68
2019-01-28T04:40:31.138Z,99.20
2019-01-28T04:41:31.136Z,98.88
2019-01-28T04:42:31.114Z,98.68
2019-01-28T04:43:31.117Z,99.20
2019-01-28T04:44:31.122Z,99.20
2019-01-28T04:45:31.080Z,98.78
2019-01-28T04:46:31.070Z,98.78
2019-01-28T04:47:31.058Z,98.88
2019-01-28T04:48:31.044Z,98.99
2019-01-28T04:49:31.045Z,98.78
2019-01-28T04:50:31.055Z,98.88
2019-01-28T04:51:31.016Z,98.88
2019-01-28T04:52:31.001Z,98.84
2019-01-28T04:53:30.993Z,98.99
2019-01-28T04:54:31.003Z,98.78
2019-01-28T04:55:30.967Z,98.78
2019-01-28T04:56:30.962Z,98.99
2019-01-28T04:57:30.951Z,98.88
2019-01-28T04:58:30.937Z,98.74
2019-01-28T04:59:30.923Z,98.74
2019-01-28T05:00:30.925Z,98.88
2019-01-28T05:01:30.900Z,98.57
2019-01-28T05:02:30.889Z,98.84
2019-01-28T05:03:30.907Z,99.20
2019-01-28T05:04:30.871Z,98.99
2019-01-28T05:05:30.880Z,98.78
2019-01-28T05:06:30.847Z,98.84
2019-01-28T05:07:30.835Z,99.36
2019-01-28T05:08:30.825Z,99.26
2019-01-28T05:09:30.820Z,98.99
2019-01-28T05:10:30.802Z,98.99
2019-01-28T05:11:30.808Z,98.63
2019-01-28T05:12:30.777Z,99.15
2019-01-28T05:13:30.766Z,98.99
2019-01-28T05:14:30.754Z,98.63
2019-01-28T05:15:30.758Z,99.26
2019-01-28T05:16:30.748Z,99.15
2019-01-28T05:17:30.736Z,99.51
2019-01-28T05:18:30.712Z,99.46
2019-01-28T05:19:30.890Z,99.51
2019-01-28T05:20:30.688Z,99.46
2019-01-28T05:21:30.681Z,99.26
2019-01-28T05:22:30.714Z,99.05
2019-01-28T05:23:30.669Z,98.94
2019-01-28T05:24:30.644Z,99.36
2019-01-28T05:25:30.633Z,99.26
2019-01-28T05:26:30.622Z,99.26
2019-01-28T05:27:30.612Z,98.94
2019-01-28T05:28:30.652Z,99.42
2019-01-28T05:29:30.593Z,99.21
2019-01-28T05:30:30.582Z,99.26
2019-01-28T05:31:30.570Z,99.32
2019-01-28T05:32:30.555Z,99.42
2019-01-28T05:33:30.563Z,99.11
2019-01-28T05:34:30.538Z,98.90
2019-01-28T05:35:30.521Z,99.01
2019-01-28T05:36:30.514Z,99.11
2019-01-28T05:37:30.540Z,99.01
2019-01-28T05:38:30.489Z,99.01
2019-01-28T05:39:30.492Z,98.90
2019-01-28T05:40:30.487Z,98.90
2019-01-28T05:41:30.454Z,99.11
2019-01-28T05:42:30.447Z,99.01
2019-01-28T05:43:30.434Z,99.32
2019-01-28T05:44:30.448Z,99.11
2019-01-28T05:45:30.423Z,99.21
2019-01-28T05:46:30.420Z,98.80
2019-01-28T05:47:30.391Z,99.21
2019-01-28T05:48:30.377Z,99.21
2019-01-28T05:49:30.371Z,99.11
2019-01-28T05:50:30.378Z,99.21
2019-01-28T05:51:30.346Z,99.21
2019-01-28T05:52:30.342Z,99.21
2019-01-28T05:53:30.324Z,99.21
2019-01-28T05:54:30.310Z,99.48
2019-01-28T05:55:30.302Z,99.32
2019-01-28T05:56:30.315Z,99.73
2019-01-28T05:57:30.277Z,99.52
2019-01-28T05:58:30.276Z,99.99
2019-01-28T05:59:30.257Z,99.99
2019-01-28T06:00:30.244Z,99.99
2019-01-28T06:01:30.240Z,99.94
2019-01-28T06:02:30.232Z,99.79
2019-01-28T06:03:30.217Z,99.99
2019-01-28T06:04:30.255Z,99.68
2019-01-28T06:05:30.191Z,99.73
2019-01-28T06:06:30.183Z,99.79
2019-01-28T06:07:30.167Z,99.90
2019-01-28T06:08:30.178Z,99.68
2019-01-28T06:09:30.151Z,99.79
2019-01-28T06:10:30.145Z,99.90
2019-01-28T06:11:30.132Z,99.68
2019-01-28T06:12:30.117Z,99.84
2019-01-28T06:13:30.105Z,99.99
2019-01-28T06:14:30.091Z,99.99
2019-01-28T06:15:30.098Z,99.99
2019-01-28T06:16:30.067Z,99.79
2019-01-28T06:17:30.064Z,99.79
2019-01-28T06:18:30.046Z,99.99
2019-01-28T06:19:30.034Z,99.68
2019-01-28T06:20:30.023Z,99.90
2019-01-28T06:21:30.025Z,99.79
2019-01-28T06:22:30.001Z,99.99
2019-01-28T06:23:30.011Z,99.99
2019-01-28T06:24:30.002Z,99.99
2019-01-28T06:25:29.973Z,99.99
2019-01-28T06:26:29.969Z,99.99
2019-01-28T06:27:29.947Z,99.99
2019-01-28T06:28:29.938Z,99.99
2019-01-28T06:29:29.945Z,99.99
2019-01-28T06:30:29.913Z,99.99
2019-01-28T06:31:29.902Z,99.99
2019-01-28T06:32:29.904Z,99.99
2019-01-28T06:33:29.892Z,99.99
2019-01-28T06:34:29.887Z,99.99
2019-01-28T06:35:29.867Z,99.99
2019-01-28T06:36:29.858Z,99.99
2019-01-28T06:37:29.835Z,99.99
2019-01-28T06:38:29.822Z,99.99
2019-01-28T06:39:29.827Z,99.99
2019-01-28T06:40:29.802Z,99.99
2019-01-28T06:41:29.790Z,99.99
2019-01-28T06:42:29.789Z,99.99
2019-01-28T06:43:29.768Z,99.99
2019-01-28T06:44:29.757Z,99.99
2019-01-28T06:45:29.756Z,99.99
2019-01-28T06:46:29.738Z,99.99
2019-01-28T06:47:29.725Z,99.99
2019-01-28T06:48:29.724Z,99.99
2019-01-28T06:49:29.713Z,99.99
2019-01-28T06:50:29.703Z,99.99
2019-01-28T06:51:29.678Z,99.99
2019-01-28T06:52:29.667Z,99.99
2019-01-28T06:53:29.660Z,99.99
2019-01-28T06:54:29.646Z,99.99
2019-01-28T06:55:29.639Z,99.99
2019-01-28T06:56:29.640Z,99.99
2019-01-28T06:57:29.628Z,99.99
2019-01-28T06:58:29.619Z,99.99
2019-01-28T06:59:29.594Z,99.99
2019-01-28T07:00:29.583Z,99.99
2019-01-28T07:01:29.583Z,99.99
2019-01-28T07:02:29.571Z,99.99
2019-01-28T07:03:29.566Z,99.99
2019-01-28T07:04:29.550Z,99.99
2019-01-28T07:05:29.530Z,99.99
2019-01-28T07:06:29.521Z,99.99
2019-01-28T07:07:29.520Z,99.99
2019-01-28T07:08:29.520Z,99.99
2019-01-28T07:09:29.487Z,99.99
2019-01-28T07:10:29.491Z,99.99
2019-01-28T07:11:29.468Z,99.99
2019-01-28T07:12:29.453Z,99.99
2019-01-28T07:13:29.455Z,99.99
2019-01-28T07:14:29.440Z,99.99
2019-01-28T07:15:29.434Z,99.99
2019-01-28T07:16:29.411Z,99.99
2019-01-28T07:17:29.398Z,99.99
2019-01-28T07:18:29.383Z,99.99
2019-01-28T07:19:31.276Z,99.99
2019-01-28T07:20:29.362Z,99.99
2019-01-28T07:21:29.365Z,99.99
2019-01-28T07:22:29.340Z,99.99
2019-01-28T07:23:29.331Z,99.99
2019-01-28T07:24:29.332Z,99.99
2019-01-28T07:25:29.306Z,99.99
2019-01-28T07:26:29.305Z,99.99
2019-01-28T07:27:29.314Z,99.99
2019-01-28T07:28:29.287Z,99.99
2019-01-28T07:29:29.265Z,99.99
2019-01-28T07:30:29.267Z,99.99
2019-01-28T07:31:29.240Z,99.99
2019-01-28T07:32:29.242Z,99.99
2019-01-28T07:33:29.222Z,99.99
2019-01-28T07:34:29.209Z,99.99
2019-01-28T07:35:29.219Z,99.99
2019-01-28T07:36:29.191Z,99.99
2019-01-28T07:37:29.181Z,99.99
2019-01-28T07:38:29.162Z,99.99
2019-01-28T07:39:29.155Z,99.99
2019-01-28T07:40:29.149Z,99.99
2019-01-28T07:41:29.164Z,99.99
2019-01-28T07:42:29.143Z,99.99
2019-01-28T07:43:29.127Z,99.99
2019-01-28T07:44:29.098Z,99.99
2019-01-28T07:45:29.088Z,99.99
2019-01-28T07:46:29.081Z,99.99
2019-01-28T07:47:29.099Z,99.99
2019-01-28T07:48:29.064Z,99.99
2019-01-28T07:49:29.068Z,99.99
2019-01-28T07:50:29.085Z,99.99
2019-01-28T07:51:29.022Z,99.99
2019-01-28T07:52:29.025Z,99.99
2019-01-28T07:53:29.010Z,99.99
2019-01-28T07:54:29.004Z,99.99
2019-01-28T07:55:28.982Z,99.99
2019-01-28T07:56:29.001Z,99.99
2019-01-28T07:57:28.953Z,99.99
2019-01-28T07:58:28.944Z,99.99
2019-01-28T07:59:28.941Z,99.99
2019-01-28T08:00:28.936Z,99.99
2019-01-28T08:01:28.920Z,99.99
2019-01-28T08:02:28.907Z,99.99
2019-01-28T08:03:28.888Z,99.99
2019-01-28T08:04:28.880Z,99.99
2019-01-28T08:05:28.869Z,99.99
2019-01-28T08:06:28.874Z,99.99
2019-01-28T08:07:28.848Z,99.99
2019-01-28T08:08:28.837Z,99.99
2019-01-28T08:09:28.831Z,99.99
2019-01-28T08:10:28.812Z,99.99
2019-01-28T08:11:28.821Z,99.99
2019-01-28T08:12:28.810Z,99.99
2019-01-28T08:13:28.785Z,99.99
2019-01-28T08:14:28.770Z,99.99
2019-01-28T08:15:28.792Z,99.99
2019-01-28T08:16:28.744Z,99.99
2019-01-28T08:17:28.735Z,99.99
2019-01-28T08:18:28.751Z,99.99
2019-01-28T08:19:28.714Z,99.99
2019-01-28T08:20:28.702Z,99.99
2019-01-28T08:21:28.689Z,99.98
2019-01-28T08:22:28.689Z,99.98
2019-01-28T08:23:28.669Z,99.87
2019-01-28T08:24:28.670Z,99.99
2019-01-28T08:25:28.647Z,99.98
2019-01-28T08:26:28.654Z,99.87
2019-01-28T08:27:28.663Z,99.87
2019-01-28T08:28:28.607Z,99.77
2019-01-28T08:29:28.615Z,99.77
2019-01-28T08:30:28.614Z,99.66
2019-01-28T08:31:28.584Z,99.66
2019-01-28T08:32:28.564Z,99.46
2019-01-28T08:33:28.563Z,98.83
2019-01-28T08:34:28.542Z,98.94
2019-01-28T08:35:28.533Z,98.63
2019-01-28T08:36:28.539Z,99.35
2019-01-28T08:37:28.508Z,98.83
2019-01-28T08:38:28.500Z,98.32
2019-01-28T08:39:28.488Z,98.63
2019-01-28T08:40:28.478Z,98.73
2019-01-28T08:41:28.513Z,98.63
2019-01-28T08:42:28.463Z,98.42
2019-01-28T08:43:28.448Z,98.42
2019-01-28T08:44:28.430Z,98.42
2019-01-28T08:45:28.420Z,98.73
2019-01-28T08:46:30.225Z,98.63
2019-01-28T08:47:28.403Z,98.42
2019-01-28T08:48:28.384Z,97.86
2019-01-28T08:49:28.378Z,97.59
2019-01-28T08:50:28.366Z,97.38
2019-01-28T08:51:28.355Z,97.07
2019-01-28T08:52:28.368Z,96.97
2019-01-28T08:53:28.358Z,97.17
2019-01-28T08:54:28.322Z,96.55
2019-01-28T08:55:28.310Z,96.55
2019-01-28T08:56:28.298Z,96.76
2019-01-28T08:57:28.287Z,96.55
2019-01-28T08:58:28.299Z,96.45
2019-01-28T08:59:28.274Z,96.30
2019-01-28T09:00:28.290Z,96.34
2019-01-28T09:01:28.247Z,96.45
2019-01-28T09:02:28.236Z,96.45
2019-01-28T09:03:28.225Z,96.34
2019-01-28T09:04:28.223Z,96.72
2019-01-28T09:05:28.210Z,96.72
2019-01-28T09:06:28.189Z,97.28
2019-01-28T09:07:28.176Z,97.17
2019-01-28T09:08:28.167Z,96.55
2019-01-28T09:09:28.166Z,96.76
2019-01-28T09:10:28.143Z,97.17
2019-01-28T09:11:28.137Z,97.07
2019-01-28T09:12:28.140Z,97.24
2019-01-28T09:13:28.122Z,96.92
2019-01-28T09:14:28.102Z,97.13
2019-01-28T09:15:28.102Z,97.44
2019-01-28T09:16:28.077Z,97.03
2019-01-28T09:17:28.068Z,97.34
2019-01-28T09:18:28.071Z,97.44
2019-01-28T09:19:28.051Z,97.55
2019-01-28T09:20:28.044Z,97.13
2019-01-28T09:21:28.045Z,97.03
2019-01-28T09:22:28.018Z,97.13
2019-01-28T09:23:28.005Z,97.03
2019-01-28T09:24:28.003Z,97.03
2019-01-28T09:25:28.031Z,97.03
2019-01-28T09:26:27.984Z,97.24
2019-01-28T09:27:27.957Z,96.98
2019-01-28T09:28:27.941Z,97.55
2019-01-28T09:29:27.931Z,97.03
2019-01-28T09:30:27.918Z,97.65
2019-01-28T09:31:27.908Z,96.61
2019-01-28T09:32:27.911Z,96.98
2019-01-28T09:33:27.888Z,96.61
2019-01-28T09:34:27.874Z,96.82
2019-01-28T09:35:27.872Z,96.72
2019-01-28T09:36:27.855Z,97.03
2019-01-28T09:37:27.904Z,96.98
2019-01-28T09:38:27.889Z,96.57
2019-01-28T09:39:27.872Z,96.05
2019-01-28T09:40:27.827Z,96.47
2019-01-28T09:41:27.798Z,96.88
2019-01-28T09:42:27.828Z,96.26
2019-01-28T09:43:27.779Z,95.80
2019-01-28T09:44:27.780Z,96.57
2019-01-28T09:45:27.770Z,95.64
2019-01-28T09:46:27.751Z,96.57
2019-01-28T09:47:27.768Z,95.95
2019-01-28T09:48:34.237Z,95.74
2019-01-28T09:49:28.718Z,95.95
2019-01-28T09:50:27.731Z,95.84
2019-01-28T09:51:27.690Z,95.59
2019-01-28T09:52:27.681Z,96.15
2019-01-28T09:53:29.478Z,96.42
2019-01-28T09:54:27.689Z,96.21
2019-01-28T09:55:27.660Z,95.95
2019-01-28T09:56:27.641Z,95.80
2019-01-28T09:57:27.638Z,95.95
2019-01-28T09:58:27.622Z,95.64
2019-01-28T09:59:27.637Z,95.64
2019-01-28T10:00:27.625Z,95.32
2019-01-28T10:01:27.593Z,95.32
2019-01-28T10:02:27.575Z,95.39
2019-01-28T10:03:27.572Z,94.81
2019-01-28T10:04:27.547Z,94.60
2019-01-28T10:05:27.537Z,95.18
2019-01-28T10:06:27.548Z,95.53
2019-01-28T10:07:27.517Z,95.28
2019-01-28T10:08:27.504Z,95.43
2019-01-28T10:09:27.542Z,95.12
2019-01-28T10:10:27.494Z,95.32
2019-01-28T10:11:27.473Z,94.91
2019-01-28T10:12:27.491Z,95.32
2019-01-28T10:13:27.467Z,95.12
2019-01-28T10:14:27.480Z,94.87
2019-01-28T10:15:28.985Z,94.91
2019-01-28T10:16:27.416Z,95.39
2019-01-28T10:17:27.405Z,95.49
2019-01-28T10:18:27.415Z,95.43
2019-01-28T10:19:27.426Z,95.28
2019-01-28T10:20:27.373Z,95.59
2019-01-28T10:21:27.393Z,95.53
2019-01-28T10:22:27.347Z,95.53
2019-01-28T10:23:27.339Z,95.53
2019-01-28T10:24:27.379Z,95.43
2019-01-28T10:25:27.314Z,95.18
2019-01-28T10:26:27.319Z,95.39
2019-01-28T10:27:27.305Z,95.28
2019-01-28T10:28:27.280Z,95.28
2019-01-28T10:29:27.288Z,94.81
2019-01-28T10:30:27.286Z,94.91
2019-01-28T10:31:27.289Z,94.91
2019-01-28T10:32:27.240Z,95.07
2019-01-28T10:33:27.236Z,94.87
2019-01-28T10:34:27.219Z,94.76
2019-01-28T10:35:27.297Z,94.56
2019-01-28T10:36:27.232Z,94.60
2019-01-28T10:37:27.209Z,95.07
2019-01-28T10:38:27.170Z,94.56
2019-01-28T10:39:27.178Z,94.87
2019-01-28T10:40:27.163Z,95.28
2019-01-28T10:41:27.157Z,94.87
2019-01-28T10:42:27.134Z,95.18
2019-01-28T10:43:27.119Z,95.28
2019-01-28T10:44:27.102Z,94.97
2019-01-28T10:45:27.102Z,95.59
2019-01-28T10:46:27.077Z,96.15
2019-01-28T10:47:27.078Z,95.90
2019-01-28T10:48:27.091Z,95.70
2019-01-28T10:49:27.046Z,95.95
2019-01-28T10:50:27.036Z,96.73
2019-01-28T10:51:27.036Z,96.94
2019-01-28T10:52:27.058Z,96.52
2019-01-28T10:53:27.017Z,96.52
2019-01-28T10:54:27.032Z,96.21
2019-01-28T10:55:26.981Z,96.01
2019-01-28T10:56:26.970Z,96.62
2019-01-28T10:57:26.967Z,96.52
2019-01-28T10:58:26.945Z,95.80
2019-01-28T10:59:26.975Z,95.70
2019-01-28T11:00:26.932Z,96.11
2019-01-28T11:01:26.957Z,96.26
2019-01-28T11:02:26.903Z,96.47
2019-01-28T11:03:26.902Z,95.90
2019-01-28T11:04:34.418Z,95.22
2019-01-28T11:05:26.870Z,95.95
2019-01-28T11:06:26.856Z,95.95
2019-01-28T11:07:26.874Z,96.05
2019-01-28T11:08:26.835Z,95.84
2019-01-28T11:09:26.845Z,95.84
2019-01-28T11:10:26.847Z,95.53
2019-01-28T11:11:26.919Z,95.64
2019-01-28T11:12:26.798Z,95.01
2019-01-28T11:13:26.859Z,95.12
2019-01-28T11:14:26.797Z,95.22
2019-01-28T11:15:26.772Z,95.64
2019-01-28T11:16:26.772Z,95.22
2019-01-28T11:17:26.784Z,95.53
2019-01-28T11:18:26.757Z,94.70
2019-01-28T11:19:26.723Z,94.91
2019-01-28T11:20:26.733Z,95.12
2019-01-28T11:21:26.793Z,94.91
2019-01-28T11:22:26.678Z,94.91
2019-01-28T11:23:26.702Z,94.91
2019-01-28T11:24:26.825Z,94.81
2019-01-28T11:25:26.775Z,95.06
2019-01-28T11:26:26.759Z,95.16
2019-01-28T11:27:26.641Z,94.95
2019-01-28T11:28:26.717Z,94.74
2019-01-28T11:29:26.633Z,94.95
2019-01-28T11:30:26.600Z,94.70
2019-01-28T11:31:26.706Z,94.91
2019-01-28T11:32:26.605Z,94.95
2019-01-28T11:33:26.718Z,94.70
2019-01-28T11:34:26.584Z,95.47
2019-01-28T11:35:26.557Z,94.95
2019-01-28T11:36:26.661Z,95.16
2019-01-28T11:37:26.660Z,95.68
2019-01-28T11:38:26.560Z,95.37
2019-01-28T11:39:26.539Z,94.91
2019-01-28T11:40:26.479Z,94.95
2019-01-28T11:41:26.514Z,94.95
2019-01-28T11:42:26.550Z,95.06
2019-01-28T11:43:26.587Z,95.47
2019-01-28T11:44:26.469Z,95.64
2019-01-28T11:45:26.464Z,95.47
2019-01-28T11:46:26.412Z,95.06
2019-01-28T11:47:26.554Z,95.43
2019-01-28T11:48:26.526Z,95.78
2019-01-28T11:49:26.517Z,96.26
2019-01-28T11:50:26.392Z,96.30
2019-01-28T11:51:26.358Z,96.41
2019-01-28T11:52:26.350Z,96.30
2019-01-28T11:53:26.344Z,96.15
2019-01-28T11:54:26.329Z,96.20
2019-01-28T11:55:26.333Z,96.26
2019-01-28T11:56:26.326Z,96.67
2019-01-28T11:57:26.295Z,96.61
2019-01-28T11:58:26.283Z,96.47
2019-01-28T11:59:26.272Z,96.57
2019-01-28T12:00:26.257Z,96.36
2019-01-28T12:01:26.249Z,96.30
2019-01-28T12:02:34.034Z,95.53
2019-01-28T12:03:27.227Z,95.06
2019-01-28T12:04:26.233Z,94.60
2019-01-28T12:05:26.208Z,94.95
2019-01-28T12:06:26.194Z,94.74
2019-01-28T12:07:26.189Z,94.95
2019-01-28T12:08:26.178Z,94.85
2019-01-28T12:09:26.166Z,94.95
2019-01-28T12:10:26.193Z,95.37
2019-01-28T12:11:26.150Z,95.26
2019-01-28T12:12:26.147Z,95.68
2019-01-28T12:13:26.134Z,96.26
2019-01-28T12:14:26.103Z,96.47
2019-01-28T12:15:26.110Z,95.68
2019-01-28T12:16:26.092Z,95.74
2019-01-28T12:17:26.065Z,94.74
2019-01-28T12:18:26.062Z,95.16
2019-01-28T12:19:26.105Z,95.37
2019-01-28T12:20:26.037Z,95.47
2019-01-28T12:21:26.044Z,95.47
2019-01-28T12:22:26.074Z,95.47
2019-01-28T12:23:26.003Z,94.54
2019-01-28T12:24:26.006Z,94.64
2019-01-28T12:25:25.981Z,95.06
2019-01-28T12:26:25.975Z,95.00
2019-01-28T12:27:25.979Z,95.20
2019-01-28T12:28:26.033Z,94.84
2019-01-28T12:29:25.979Z,95.10
2019-01-28T12:30:25.937Z,94.79
2019-01-28T12:31:25.940Z,94.68
2019-01-28T12:32:25.922Z,94.79
2019-01-28T12:33:25.896Z,95.00
2019-01-28T12:34:25.880Z,95.46
2019-01-28T12:35:25.867Z,95.41
2019-01-28T12:36:25.884Z,95.41
2019-01-28T12:37:25.848Z,95.72
2019-01-28T12:38:25.855Z,95.20
2019-01-28T12:39:25.851Z,95.20
2019-01-28T12:40:25.827Z,95.31
2019-01-28T12:41:25.802Z,95.31
2019-01-28T12:42:25.793Z,95.04
2019-01-28T12:43:25.779Z,95.04
2019-01-28T12:44:25.822Z,94.68
2019-01-28T12:45:25.758Z,94.84
2019-01-28T12:46:25.762Z,95.04
2019-01-28T12:47:25.746Z,94.94
2019-01-28T12:48:25.723Z,94.53
2019-01-28T12:49:25.714Z,95.15
2019-01-28T12:50:25.717Z,94.63
2019-01-28T12:51:25.745Z,94.73
2019-01-28T12:52:25.682Z,95.04